sensor_id;sensor_type;location;lat;lon;timestamp;pressure;altitude;pressure_sealevel;temperature;humidity
54554;BME280;40450;55.848;-3.572;2022-09-09T00:02:29;98458.58;;;12.98;100.00
54554;BME280;40450;55.848;-3.572;2022-09-09T00:05:04;98459.87;;;13.71;100.00
54554;BME280;40450;55.848;-3.572;2022-09-09T00:07:40;98455.29;;;13.31;100.00
54554;BME280;40450;55.848;-3.572;2022-09-09T00:10:05;98456.65;;;13.18;100.00
54554;BME280;40450;55.848;-3.572;2022-09-09T00:12:36;98455.07;;;15.94;98.55
54554;BME280;40450;55.848;-3.572;2022-09-09T00:15:05;98453.54;;;16.09;97.53
54554;BME280;40450;55.848;-3.572;2022-09-09T00:17:37;98453.29;;;17.52;95.94
54554;BME280;40450;55.848;-3.572;2022-09-09T00:20:04;98461.57;;;15.53;94.96
54554;BME280;40450;55.848;-3.572;2022-09-09T00:22:32;98455.13;;;17.04;92.68
54554;BME280;40450;55.848;-3.572;2022-09-09T00:25:09;98451.48;;;16.85;92.94
54554;BME280;40450;55.848;-3.572;2022-09-09T00:27:39;98454.20;;;17.22;92.67
54554;BME280;40450;55.848;-3.572;2022-09-09T00:30:13;98461.72;;;15.29;95.45
54554;BME280;40450;55.848;-3.572;2022-09-09T00:32:33;98458.75;;;14.36;98.44
54554;BME280;40450;55.848;-3.572;2022-09-09T00:35:14;98462.87;;;13.39;100.00
54554;BME280;40450;55.848;-3.572;2022-09-09T00:37:38;98468.64;;;13.02;100.00
54554;BME280;40450;55.848;-3.572;2022-09-09T00:40:15;98469.08;;;14.37;98.60
54554;BME280;40450;55.848;-3.572;2022-09-09T00:42:40;98471.65;;;12.89;100.00
54554;BME280;40450;55.848;-3.572;2022-09-09T00:45:16;98476.28;;;12.54;100.00
54554;BME280;40450;55.848;-3.572;2022-09-09T00:47:45;98473.55;;;12.36;100.00
54554;BME280;40450;55.848;-3.572;2022-09-09T00:50:17;98475.03;;;14.04;99.92
54554;BME280;40450;55.848;-3.572;2022-09-09T00:52:42;98476.79;;;13.71;100.00
54554;BME280;40450;55.848;-3.572;2022-09-09T00:55:11;98479.87;;;12.56;100.00
54554;BME280;40450;55.848;-3.572;2022-09-09T00:57:38;98483.22;;;12.49;100.00
54554;BME280;40450;55.848;-3.572;2022-09-09T01:00:17;98484.98;;;12.49;100.00
54554;BME280;40450;55.848;-3.572;2022-09-09T01:02:43;98488.10;;;12.00;100.00
54554;BME280;40450;55.848;-3.572;2022-09-09T01:05:13;98483.79;;;14.74;100.00
54554;BME280;40450;55.848;-3.572;2022-09-09T01:07:40;98489.91;;;12.74;100.00
54554;BME280;40450;55.848;-3.572;2022-09-09T01:10:17;98483.56;;;14.10;100.00
54554;BME280;40450;55.848;-3.572;2022-09-09T01:12:41;98484.24;;;14.08;99.97
54554;BME280;40450;55.848;-3.572;2022-09-09T01:15:12;98487.68;;;15.30;97.85
54554;BME280;40450;55.848;-3.572;2022-09-09T01:17:48;98490.29;;;13.19;100.00
54554;BME280;40450;55.848;-3.572;2022-09-09T01:20:13;98489.71;;;12.95;100.00
54554;BME280;40450;55.848;-3.572;2022-09-09T01:22:47;98493.43;;;13.73;100.00
54554;BME280;40450;55.848;-3.572;2022-09-09T01:25:20;98497.02;;;12.35;100.00
54554;BME280;40450;55.848;-3.572;2022-09-09T01:27:42;98498.42;;;13.22;100.00
54554;BME280;40450;55.848;-3.572;2022-09-09T01:30:14;98498.35;;;14.53;97.93
54554;BME280;40450;55.848;-3.572;2022-09-09T01:32:44;98504.69;;;13.07;100.00
54554;BME280;40450;55.848;-3.572;2022-09-09T01:35:18;98502.02;;;14.82;97.99
54554;BME280;40450;55.848;-3.572;2022-09-09T01:37:43;98510.34;;;16.08;96.12
54554;BME280;40450;55.848;-3.572;2022-09-09T01:40:13;98512.17;;;14.91;96.07
54554;BME280;40450;55.848;-3.572;2022-09-09T01:42:44;98514.04;;;15.56;94.27
54554;BME280;40450;55.848;-3.572;2022-09-09T01:45:19;98518.94;;;15.49;96.48
54554;BME280;40450;55.848;-3.572;2022-09-09T01:47:45;98518.56;;;16.44;94.29
54554;BME280;40450;55.848;-3.572;2022-09-09T01:50:17;98523.37;;;14.27;97.66
54554;BME280;40450;55.848;-3.572;2022-09-09T01:52:49;98523.62;;;16.04;95.10
54554;BME280;40450;55.848;-3.572;2022-09-09T01:55:15;98522.13;;;14.70;97.87
54554;BME280;40450;55.848;-3.572;2022-09-09T01:57:53;98519.42;;;14.67;96.60
54554;BME280;40450;55.848;-3.572;2022-09-09T02:00:16;98517.68;;;16.92;93.10
54554;BME280;40450;55.848;-3.572;2022-09-09T02:02:53;98523.75;;;13.93;98.08
54554;BME280;40450;55.848;-3.572;2022-09-09T02:05:25;98525.40;;;14.77;97.08
54554;BME280;40450;55.848;-3.572;2022-09-09T02:07:48;98526.50;;;15.64;94.02
54554;BME280;40450;55.848;-3.572;2022-09-09T02:10:21;98529.76;;;15.15;95.00
54554;BME280;40450;55.848;-3.572;2022-09-09T02:12:52;98532.74;;;13.84;98.22
54554;BME280;40450;55.848;-3.572;2022-09-09T02:15:23;98531.25;;;14.54;96.92
54554;BME280;40450;55.848;-3.572;2022-09-09T02:17:50;98531.05;;;15.34;95.66
54554;BME280;40450;55.848;-3.572;2022-09-09T02:20:20;98533.75;;;14.49;97.44
54554;BME280;40450;55.848;-3.572;2022-09-09T02:22:51;98536.84;;;13.49;99.80
54554;BME280;40450;55.848;-3.572;2022-09-09T02:25:23;98540.19;;;13.18;99.84
54554;BME280;40450;55.848;-3.572;2022-09-09T02:27:51;98543.34;;;11.62;100.00
54554;BME280;40450;55.848;-3.572;2022-09-09T02:30:21;98545.57;;;12.41;100.00
54554;BME280;40450;55.848;-3.572;2022-09-09T02:32:55;98542.78;;;13.56;99.81
54554;BME280;40450;55.848;-3.572;2022-09-09T02:35:23;98543.21;;;13.44;100.00
54554;BME280;40450;55.848;-3.572;2022-09-09T02:37:54;98544.15;;;12.79;100.00
54554;BME280;40450;55.848;-3.572;2022-09-09T02:40:23;98552.31;;;12.32;100.00
54554;BME280;40450;55.848;-3.572;2022-09-09T02:42:54;98550.69;;;12.63;100.00
54554;BME280;40450;55.848;-3.572;2022-09-09T02:45:26;98548.12;;;13.63;100.00
54554;BME280;40450;55.848;-3.572;2022-09-09T02:47:59;98546.06;;;14.77;97.76
54554;BME280;40450;55.848;-3.572;2022-09-09T02:50:27;98551.16;;;16.03;95.71
54554;BME280;40450;55.848;-3.572;2022-09-09T02:53:02;98544.05;;;16.38;94.03
54554;BME280;40450;55.848;-3.572;2022-09-09T02:55:32;98547.79;;;16.22;93.09
54554;BME280;40450;55.848;-3.572;2022-09-09T02:57:56;98538.94;;;17.47;90.74
54554;BME280;40450;55.848;-3.572;2022-09-09T03:00:27;98545.54;;;16.33;91.15
54554;BME280;40450;55.848;-3.572;2022-09-09T03:02:56;98542.95;;;15.23;93.67
54554;BME280;40450;55.848;-3.572;2022-09-09T03:05:26;98544.34;;;16.14;90.61
54554;BME280;40450;55.848;-3.572;2022-09-09T03:07:56;98536.08;;;17.18;88.24
54554;BME280;40450;55.848;-3.572;2022-09-09T03:10:26;98540.84;;;15.11;94.10
54554;BME280;40450;55.848;-3.572;2022-09-09T03:12:57;98543.08;;;15.96;92.46
54554;BME280;40450;55.848;-3.572;2022-09-09T03:15:28;98544.42;;;16.13;91.99
54554;BME280;40450;55.848;-3.572;2022-09-09T03:17:58;98541.78;;;14.37;95.72
54554;BME280;40450;55.848;-3.572;2022-09-09T03:20:29;98541.83;;;14.08;96.57
54554;BME280;40450;55.848;-3.572;2022-09-09T03:23:00;98544.54;;;12.82;99.86
54554;BME280;40450;55.848;-3.572;2022-09-09T03:25:29;98547.89;;;13.67;98.17
54554;BME280;40450;55.848;-3.572;2022-09-09T03:27:59;98555.66;;;14.14;97.13
54554;BME280;40450;55.848;-3.572;2022-09-09T03:30:29;98559.24;;;13.69;98.03
54554;BME280;40450;55.848;-3.572;2022-09-09T03:32:59;98556.22;;;13.54;98.99
54554;BME280;40450;55.848;-3.572;2022-09-09T03:35:30;98558.68;;;11.83;100.00
54554;BME280;40450;55.848;-3.572;2022-09-09T03:38:00;98552.25;;;14.01;98.75
54554;BME280;40450;55.848;-3.572;2022-09-09T03:40:30;98554.01;;;12.60;100.00
54554;BME280;40450;55.848;-3.572;2022-09-09T03:43:01;98561.56;;;11.82;100.00
54554;BME280;40450;55.848;-3.572;2022-09-09T03:45:31;98565.08;;;11.16;100.00
54554;BME280;40450;55.848;-3.572;2022-09-09T03:48:02;98561.72;;;12.73;100.00
54554;BME280;40450;55.848;-3.572;2022-09-09T03:50:32;98557.92;;;12.91;100.00
54554;BME280;40450;55.848;-3.572;2022-09-09T03:53:02;98555.87;;;15.26;97.20
54554;BME280;40450;55.848;-3.572;2022-09-09T03:55:32;98558.44;;;14.22;97.81
54554;BME280;40450;55.848;-3.572;2022-09-09T03:58:03;98562.68;;;12.90;100.00
54554;BME280;40450;55.848;-3.572;2022-09-09T04:00:33;98561.70;;;15.10;96.51
54554;BME280;40450;55.848;-3.572;2022-09-09T04:03:09;98565.75;;;14.68;95.56
54554;BME280;40450;55.848;-3.572;2022-09-09T04:05:34;98569.55;;;12.91;100.00
54554;BME280;40450;55.848;-3.572;2022-09-09T04:08:05;98572.21;;;13.40;98.91
54554;BME280;40450;55.848;-3.572;2022-09-09T04:10:35;98572.92;;;13.96;98.39
54554;BME280;40450;55.848;-3.572;2022-09-09T04:13:05;98579.69;;;12.44;100.00
54554;BME280;40450;55.848;-3.572;2022-09-09T04:15:36;98579.72;;;11.86;100.00
54554;BME280;40450;55.848;-3.572;2022-09-09T04:18:06;98576.95;;;12.90;100.00
54554;BME280;40450;55.848;-3.572;2022-09-09T04:20:36;98577.37;;;14.15;97.91
54554;BME280;40450;55.848;-3.572;2022-09-09T04:23:07;98582.41;;;11.87;100.00
54554;BME280;40450;55.848;-3.572;2022-09-09T04:25:37;98582.60;;;12.30;100.00
54554;BME280;40450;55.848;-3.572;2022-09-09T04:28:08;98583.18;;;13.40;99.34
54554;BME280;40450;55.848;-3.572;2022-09-09T04:30:38;98583.16;;;14.13;98.84
54554;BME280;40450;55.848;-3.572;2022-09-09T04:33:09;98588.80;;;12.86;100.00
54554;BME280;40450;55.848;-3.572;2022-09-09T04:35:39;98589.59;;;13.59;99.40
54554;BME280;40450;55.848;-3.572;2022-09-09T04:38:09;98589.91;;;14.95;96.27
54554;BME280;40450;55.848;-3.572;2022-09-09T04:40:41;98591.54;;;15.33;96.87
54554;BME280;40450;55.848;-3.572;2022-09-09T04:43:09;98595.53;;;13.24;99.53
54554;BME280;40450;55.848;-3.572;2022-09-09T04:45:41;98593.36;;;15.32;96.11
54554;BME280;40450;55.848;-3.572;2022-09-09T04:48:10;98594.54;;;14.44;97.83
54554;BME280;40450;55.848;-3.572;2022-09-09T04:50:41;98597.47;;;13.83;98.96
54554;BME280;40450;55.848;-3.572;2022-09-09T04:53:11;98598.17;;;13.00;100.00
54554;BME280;40450;55.848;-3.572;2022-09-09T04:55:42;98597.87;;;13.76;99.21
54554;BME280;40450;55.848;-3.572;2022-09-09T04:58:13;98596.48;;;14.68;97.62
54554;BME280;40450;55.848;-3.572;2022-09-09T05:00:43;98603.45;;;13.95;98.42
54554;BME280;40450;55.848;-3.572;2022-09-09T05:03:14;98606.30;;;14.52;96.59
54554;BME280;40450;55.848;-3.572;2022-09-09T05:05:44;98606.14;;;15.53;95.39
54554;BME280;40450;55.848;-3.572;2022-09-09T05:08:15;98613.48;;;14.35;96.57
54554;BME280;40450;55.848;-3.572;2022-09-09T05:10:45;98608.62;;;14.79;95.65
54554;BME280;40450;55.848;-3.572;2022-09-09T05:13:15;98608.16;;;14.89;95.28
54554;BME280;40450;55.848;-3.572;2022-09-09T05:15:51;98608.85;;;15.47;93.35
54554;BME280;40450;55.848;-3.572;2022-09-09T05:18:16;98609.05;;;14.31;96.87
54554;BME280;40450;55.848;-3.572;2022-09-09T05:20:46;98611.70;;;12.77;100.00
54554;BME280;40450;55.848;-3.572;2022-09-09T05:23:17;98617.83;;;12.32;100.00
54554;BME280;40450;55.848;-3.572;2022-09-09T05:25:55;98617.67;;;12.20;100.00
54554;BME280;40450;55.848;-3.572;2022-09-09T05:28:17;98623.14;;;12.53;100.00
54554;BME280;40450;55.848;-3.572;2022-09-09T05:30:55;98620.67;;;14.29;98.78
54554;BME280;40450;55.848;-3.572;2022-09-09T05:33:18;98624.74;;;12.94;100.00
54554;BME280;40450;55.848;-3.572;2022-09-09T05:35:55;98630.73;;;10.18;100.00
54554;BME280;40450;55.848;-3.572;2022-09-09T05:38:19;98632.88;;;11.56;100.00
54554;BME280;40450;55.848;-3.572;2022-09-09T05:40:49;98631.69;;;11.68;100.00
54554;BME280;40450;55.848;-3.572;2022-09-09T05:43:20;98638.04;;;12.19;100.00
54554;BME280;40450;55.848;-3.572;2022-09-09T05:48:20;98639.12;;;13.05;100.00
54554;BME280;40450;55.848;-3.572;2022-09-09T05:50:53;98645.85;;;12.34;100.00
54554;BME280;40450;55.848;-3.572;2022-09-09T05:53:21;98649.07;;;12.07;100.00
54554;BME280;40450;55.848;-3.572;2022-09-09T05:55:58;98653.67;;;11.02;100.00
54554;BME280;40450;55.848;-3.572;2022-09-09T05:58:22;98653.39;;;11.11;100.00
54554;BME280;40450;55.848;-3.572;2022-09-09T06:00:52;98650.79;;;12.14;100.00
54554;BME280;40450;55.848;-3.572;2022-09-09T06:03:23;98654.74;;;12.17;100.00
54554;BME280;40450;55.848;-3.572;2022-09-09T06:05:57;98660.65;;;11.97;100.00
54554;BME280;40450;55.848;-3.572;2022-09-09T06:08:24;98663.02;;;11.16;100.00
54554;BME280;40450;55.848;-3.572;2022-09-09T06:11:01;98662.86;;;11.35;100.00
54554;BME280;40450;55.848;-3.572;2022-09-09T06:13:25;98660.67;;;11.25;100.00
54554;BME280;40450;55.848;-3.572;2022-09-09T06:15:55;98662.98;;;10.94;100.00
54554;BME280;40450;55.848;-3.572;2022-09-09T06:18:26;98668.21;;;10.67;100.00
54554;BME280;40450;55.848;-3.572;2022-09-09T06:20:57;98668.74;;;9.81;100.00
54554;BME280;40450;55.848;-3.572;2022-09-09T06:23:27;98661.80;;;9.75;100.00
54554;BME280;40450;55.848;-3.572;2022-09-09T06:26:03;98673.22;;;9.66;100.00
54554;BME280;40450;55.848;-3.572;2022-09-09T06:28:27;98672.06;;;10.36;100.00
54554;BME280;40450;55.848;-3.572;2022-09-09T06:30:59;98673.46;;;9.44;100.00
54554;BME280;40450;55.848;-3.572;2022-09-09T06:33:33;98680.10;;;9.68;100.00
54554;BME280;40450;55.848;-3.572;2022-09-09T06:35:59;98680.60;;;9.33;100.00
54554;BME280;40450;55.848;-3.572;2022-09-09T06:38:29;98682.50;;;10.45;100.00
54554;BME280;40450;55.848;-3.572;2022-09-09T06:40:59;98683.46;;;10.49;100.00
54554;BME280;40450;55.848;-3.572;2022-09-09T06:43:29;98685.55;;;9.69;100.00
54554;BME280;40450;55.848;-3.572;2022-09-09T06:46:01;98685.90;;;10.28;100.00
54554;BME280;40450;55.848;-3.572;2022-09-09T06:48:31;98684.00;;;11.92;100.00
54554;BME280;40450;55.848;-3.572;2022-09-09T06:51:03;98697.97;;;10.80;100.00
54554;BME280;40450;55.848;-3.572;2022-09-09T06:53:32;98700.01;;;9.84;100.00
54554;BME280;40450;55.848;-3.572;2022-09-09T06:58:33;98707.72;;;8.93;100.00
54554;BME280;40450;55.848;-3.572;2022-09-09T07:01:05;98708.63;;;9.80;100.00
54554;BME280;40450;55.848;-3.572;2022-09-09T07:03:34;98709.15;;;9.74;100.00
54554;BME280;40450;55.848;-3.572;2022-09-09T07:06:05;98709.17;;;9.92;100.00
54554;BME280;40450;55.848;-3.572;2022-09-09T07:08:35;98713.24;;;10.73;100.00
54554;BME280;40450;55.848;-3.572;2022-09-09T07:11:07;98720.62;;;8.82;100.00
54554;BME280;40450;55.848;-3.572;2022-09-09T07:13:35;98709.26;;;11.57;100.00
54554;BME280;40450;55.848;-3.572;2022-09-09T07:16:07;98716.81;;;8.86;100.00
54554;BME280;40450;55.848;-3.572;2022-09-09T07:18:37;98719.07;;;8.90;100.00
54554;BME280;40450;55.848;-3.572;2022-09-09T07:21:08;98718.88;;;9.68;100.00
54554;BME280;40450;55.848;-3.572;2022-09-09T07:23:38;98720.75;;;9.05;100.00
54554;BME280;40450;55.848;-3.572;2022-09-09T07:26:09;98729.05;;;8.36;100.00
54554;BME280;40450;55.848;-3.572;2022-09-09T07:28:38;98726.54;;;8.90;100.00
54554;BME280;40450;55.848;-3.572;2022-09-09T07:31:13;98724.74;;;9.26;100.00
54554;BME280;40450;55.848;-3.572;2022-09-09T07:33:39;98735.50;;;8.65;100.00
54554;BME280;40450;55.848;-3.572;2022-09-09T07:36:13;98729.24;;;9.76;100.00
54554;BME280;40450;55.848;-3.572;2022-09-09T07:38:40;98739.00;;;9.01;100.00
54554;BME280;40450;55.848;-3.572;2022-09-09T07:41:11;98750.74;;;8.75;100.00
54554;BME280;40450;55.848;-3.572;2022-09-09T07:43:40;98751.18;;;8.62;100.00
54554;BME280;40450;55.848;-3.572;2022-09-09T07:46:12;98751.24;;;9.35;100.00
54554;BME280;40450;55.848;-3.572;2022-09-09T07:48:43;98755.44;;;8.96;100.00
54554;BME280;40450;55.848;-3.572;2022-09-09T07:51:14;98755.69;;;9.47;100.00
54554;BME280;40450;55.848;-3.572;2022-09-09T07:53:41;98755.08;;;10.05;100.00
54554;BME280;40450;55.848;-3.572;2022-09-09T07:56:13;98765.74;;;8.92;100.00
54554;BME280;40450;55.848;-3.572;2022-09-09T07:58:45;98767.00;;;10.34;100.00
54554;BME280;40450;55.848;-3.572;2022-09-09T08:01:14;98775.08;;;9.18;100.00
54554;BME280;40450;55.848;-3.572;2022-09-09T08:03:43;98776.56;;;10.21;100.00
54554;BME280;40450;55.848;-3.572;2022-09-09T08:06:14;98781.90;;;9.28;100.00
54554;BME280;40450;55.848;-3.572;2022-09-09T08:08:44;98784.14;;;8.69;100.00
54554;BME280;40450;55.848;-3.572;2022-09-09T08:11:16;98788.15;;;9.46;100.00
54554;BME280;40450;55.848;-3.572;2022-09-09T08:13:45;98786.81;;;10.60;100.00
54554;BME280;40450;55.848;-3.572;2022-09-09T08:16:18;98794.69;;;10.87;100.00
54554;BME280;40450;55.848;-3.572;2022-09-09T08:18:47;98775.68;;;11.33;100.00
54554;BME280;40450;55.848;-3.572;2022-09-09T08:21:20;98801.58;;;9.30;100.00
54554;BME280;40450;55.848;-3.572;2022-09-09T08:23:50;98788.28;;;9.81;100.00
54554;BME280;40450;55.848;-3.572;2022-09-09T08:26:20;98795.08;;;10.16;100.00
54554;BME280;40450;55.848;-3.572;2022-09-09T08:28:50;98803.06;;;10.21;100.00
54554;BME280;40450;55.848;-3.572;2022-09-09T08:31:21;98806.81;;;10.45;100.00
54554;BME280;40450;55.848;-3.572;2022-09-09T08:33:50;98818.04;;;10.79;100.00
54554;BME280;40450;55.848;-3.572;2022-09-09T08:36:21;98816.37;;;10.31;100.00
54554;BME280;40450;55.848;-3.572;2022-09-09T08:38:51;98826.08;;;9.94;100.00
54554;BME280;40450;55.848;-3.572;2022-09-09T08:41:33;98842.30;;;8.80;100.00
54554;BME280;40450;55.848;-3.572;2022-09-09T08:43:59;98844.31;;;8.61;100.00
54554;BME280;40450;55.848;-3.572;2022-09-09T08:46:27;98856.61;;;8.48;100.00
54554;BME280;40450;55.848;-3.572;2022-09-09T08:48:58;98857.94;;;9.95;100.00
54554;BME280;40450;55.848;-3.572;2022-09-09T08:51:26;98867.53;;;9.91;100.00
54554;BME280;40450;55.848;-3.572;2022-09-09T08:53:54;98860.90;;;8.76;100.00
54554;BME280;40450;55.848;-3.572;2022-09-09T08:56:25;98870.56;;;10.38;100.00
54554;BME280;40450;55.848;-3.572;2022-09-09T08:58:55;98882.86;;;8.18;100.00
54554;BME280;40450;55.848;-3.572;2022-09-09T09:01:35;98891.16;;;8.65;100.00
54554;BME280;40450;55.848;-3.572;2022-09-09T09:04:00;98885.69;;;9.06;100.00
54554;BME280;40450;55.848;-3.572;2022-09-09T09:06:35;98891.90;;;8.32;100.00
54554;BME280;40450;55.848;-3.572;2022-09-09T09:09:00;98896.56;;;9.92;100.00
54554;BME280;40450;55.848;-3.572;2022-09-09T09:11:25;98896.42;;;11.01;100.00
54554;BME280;40450;55.848;-3.572;2022-09-09T09:13:59;98910.77;;;9.97;100.00
54554;BME280;40450;55.848;-3.572;2022-09-09T09:16:32;98911.35;;;8.63;100.00
54554;BME280;40450;55.848;-3.572;2022-09-09T09:18:56;98926.28;;;9.68;100.00
54554;BME280;40450;55.848;-3.572;2022-09-09T09:21:34;98927.46;;;9.02;100.00
54554;BME280;40450;55.848;-3.572;2022-09-09T09:23:59;98938.85;;;9.70;100.00
54554;BME280;40450;55.848;-3.572;2022-09-09T09:26:31;98940.46;;;9.01;100.00
54554;BME280;40450;55.848;-3.572;2022-09-09T09:28:59;98946.61;;;8.97;100.00
54554;BME280;40450;55.848;-3.572;2022-09-09T09:31:29;98953.79;;;8.52;100.00
54554;BME280;40450;55.848;-3.572;2022-09-09T09:33:59;98955.41;;;8.91;100.00
54554;BME280;40450;55.848;-3.572;2022-09-09T09:36:35;98950.49;;;8.85;100.00
54554;BME280;40450;55.848;-3.572;2022-09-09T09:39:01;98958.92;;;8.02;100.00
54554;BME280;40450;55.848;-3.572;2022-09-09T09:41:32;98961.11;;;8.65;100.00
54554;BME280;40450;55.848;-3.572;2022-09-09T09:44:01;98963.53;;;7.71;100.00
54554;BME280;40450;55.848;-3.572;2022-09-09T09:46:31;98966.87;;;8.79;100.00
54554;BME280;40450;55.848;-3.572;2022-09-09T09:49:03;98970.07;;;9.41;100.00
54554;BME280;40450;55.848;-3.572;2022-09-09T09:51:32;98974.68;;;9.83;100.00
54554;BME280;40450;55.848;-3.572;2022-09-09T09:54:13;98974.45;;;9.61;100.00
54554;BME280;40450;55.848;-3.572;2022-09-09T09:56:32;98975.63;;;10.86;100.00
54554;BME280;40450;55.848;-3.572;2022-09-09T09:59:02;98978.62;;;8.66;100.00
54554;BME280;40450;55.848;-3.572;2022-09-09T10:01:34;98980.53;;;8.97;100.00
54554;BME280;40450;55.848;-3.572;2022-09-09T10:06:35;98980.05;;;10.47;100.00
54554;BME280;40450;55.848;-3.572;2022-09-09T10:11:43;98992.06;;;10.18;100.00
54554;BME280;40450;55.848;-3.572;2022-09-09T10:14:11;98986.48;;;9.70;100.00
54554;BME280;40450;55.848;-3.572;2022-09-09T10:16:45;98984.32;;;9.06;100.00
54554;BME280;40450;55.848;-3.572;2022-09-09T10:19:10;98993.75;;;9.36;100.00
54554;BME280;40450;55.848;-3.572;2022-09-09T10:21:51;98986.14;;;10.13;100.00
54554;BME280;40450;55.848;-3.572;2022-09-09T10:24:25;98986.57;;;8.72;100.00
54554;BME280;40450;55.848;-3.572;2022-09-09T10:26:42;98994.25;;;9.32;100.00
54554;BME280;40450;55.848;-3.572;2022-09-09T10:29:20;98995.56;;;9.87;100.00
54554;BME280;40450;55.848;-3.572;2022-09-09T10:31:43;98983.13;;;9.28;100.00
54554;BME280;40450;55.848;-3.572;2022-09-09T10:34:15;98987.70;;;8.56;100.00
54554;BME280;40450;55.848;-3.572;2022-09-09T10:36:42;98994.31;;;8.36;100.00
54554;BME280;40450;55.848;-3.572;2022-09-09T10:39:15;98994.27;;;9.43;100.00
54554;BME280;40450;55.848;-3.572;2022-09-09T10:41:46;98986.37;;;9.29;100.00
54554;BME280;40450;55.848;-3.572;2022-09-09T10:46:48;99003.56;;;9.65;100.00
54554;BME280;40450;55.848;-3.572;2022-09-09T10:49:19;99000.89;;;8.82;100.00
54554;BME280;40450;55.848;-3.572;2022-09-09T10:51:44;99009.51;;;9.33;100.00
54554;BME280;40450;55.848;-3.572;2022-09-09T10:54:23;99012.54;;;9.35;100.00
54554;BME280;40450;55.848;-3.572;2022-09-09T10:56:42;99018.19;;;9.71;100.00
54554;BME280;40450;55.848;-3.572;2022-09-09T10:59:16;99025.53;;;9.39;100.00
54554;BME280;40450;55.848;-3.572;2022-09-09T11:01:47;99025.26;;;9.23;100.00
54554;BME280;40450;55.848;-3.572;2022-09-09T11:04:17;99041.81;;;9.52;100.00
54554;BME280;40450;55.848;-3.572;2022-09-09T11:06:47;99031.08;;;10.25;100.00
54554;BME280;40450;55.848;-3.572;2022-09-09T11:09:17;99035.31;;;9.51;100.00
54554;BME280;40450;55.848;-3.572;2022-09-09T11:11:47;99029.84;;;8.99;100.00
54554;BME280;40450;55.848;-3.572;2022-09-09T11:14:19;99032.78;;;9.31;100.00
54554;BME280;40450;55.848;-3.572;2022-09-09T11:16:49;99040.41;;;8.92;100.00
54554;BME280;40450;55.848;-3.572;2022-09-09T11:19:19;99041.68;;;8.74;100.00
54554;BME280;40450;55.848;-3.572;2022-09-09T11:21:46;99047.08;;;8.55;100.00
54554;BME280;40450;55.848;-3.572;2022-09-09T11:24:20;99052.10;;;10.36;100.00
54554;BME280;40450;55.848;-3.572;2022-09-09T11:26:51;99058.09;;;10.03;100.00
54554;BME280;40450;55.848;-3.572;2022-09-09T11:31:55;99070.25;;;9.81;100.00
54554;BME280;40450;55.848;-3.572;2022-09-09T11:34:29;99068.44;;;9.89;100.00
54554;BME280;40450;55.848;-3.572;2022-09-09T11:37:00;99066.20;;;9.34;100.00
54554;BME280;40450;55.848;-3.572;2022-09-09T11:41:48;99075.60;;;9.95;100.00
54554;BME280;40450;55.848;-3.572;2022-09-09T11:44:25;99076.76;;;9.84;100.00
54554;BME280;40450;55.848;-3.572;2022-09-09T11:46:51;99079.50;;;8.92;100.00
54554;BME280;40450;55.848;-3.572;2022-09-09T11:49:27;99084.54;;;9.11;100.00
54554;BME280;40450;55.848;-3.572;2022-09-09T11:51:50;99074.06;;;9.59;100.00
54554;BME280;40450;55.848;-3.572;2022-09-09T11:54:29;99088.27;;;9.37;100.00
54554;BME280;40450;55.848;-3.572;2022-09-09T11:56:50;99089.00;;;9.95;100.00
54554;BME280;40450;55.848;-3.572;2022-09-09T11:59:22;99093.71;;;10.94;100.00
54554;BME280;40450;55.848;-3.572;2022-09-09T12:01:55;99093.80;;;9.89;100.00
54554;BME280;40450;55.848;-3.572;2022-09-09T12:04:28;99094.96;;;9.07;100.00
54554;BME280;40450;55.848;-3.572;2022-09-09T12:06:54;99091.70;;;10.49;100.00
54554;BME280;40450;55.848;-3.572;2022-09-09T12:09:30;99094.12;;;10.66;100.00
54554;BME280;40450;55.848;-3.572;2022-09-09T12:16:54;99087.32;;;11.63;97.99
54554;BME280;40450;55.848;-3.572;2022-09-09T12:19:24;99079.33;;;11.47;96.05
54554;BME280;40450;55.848;-3.572;2022-09-09T12:22:00;99099.48;;;11.30;98.59
54554;BME280;40450;55.848;-3.572;2022-09-09T12:24:32;99100.03;;;10.76;99.54
54554;BME280;40450;55.848;-3.572;2022-09-09T12:27:00;99097.92;;;9.51;100.00
54554;BME280;40450;55.848;-3.572;2022-09-09T12:29:30;99089.11;;;10.30;99.67
54554;BME280;40450;55.848;-3.572;2022-09-09T12:32:00;99092.48;;;9.76;100.00
54554;BME280;40450;55.848;-3.572;2022-09-09T12:34:34;99098.79;;;11.47;98.89
54554;BME280;40450;55.848;-3.572;2022-09-09T12:37:00;99091.70;;;11.27;99.41
54554;BME280;40450;55.848;-3.572;2022-09-09T12:39:32;99096.06;;;11.14;99.40
54554;BME280;40450;55.848;-3.572;2022-09-09T12:41:59;99095.26;;;10.55;100.00
54554;BME280;40450;55.848;-3.572;2022-09-09T12:44:29;99103.71;;;11.06;99.79
54554;BME280;40450;55.848;-3.572;2022-09-09T12:47:01;99098.72;;;11.33;99.18
54554;BME280;40450;55.848;-3.572;2022-09-09T12:49:32;99100.45;;;9.49;100.00
54554;BME280;40450;55.848;-3.572;2022-09-09T12:52:03;99107.73;;;9.28;100.00
54554;BME280;40450;55.848;-3.572;2022-09-09T12:54:30;99106.99;;;10.00;100.00
54554;BME280;40450;55.848;-3.572;2022-09-09T12:57:01;99110.86;;;9.59;100.00
54554;BME280;40450;55.848;-3.572;2022-09-09T12:59:37;99121.04;;;10.15;100.00
54554;BME280;40450;55.848;-3.572;2022-09-09T13:02:01;99117.06;;;9.68;100.00
54554;BME280;40450;55.848;-3.572;2022-09-09T13:04:31;99135.64;;;8.94;100.00
54554;BME280;40450;55.848;-3.572;2022-09-09T13:07:06;99121.20;;;9.45;100.00
54554;BME280;40450;55.848;-3.572;2022-09-09T13:09:32;99125.66;;;9.48;100.00
54554;BME280;40450;55.848;-3.572;2022-09-09T13:12:04;99139.01;;;8.91;100.00
54554;BME280;40450;55.848;-3.572;2022-09-09T13:14:35;99130.52;;;8.80;100.00
54554;BME280;40450;55.848;-3.572;2022-09-09T13:17:05;99143.24;;;8.75;100.00
54554;BME280;40450;55.848;-3.572;2022-09-09T13:19:36;99144.34;;;10.24;100.00
54554;BME280;40450;55.848;-3.572;2022-09-09T13:22:12;99139.19;;;9.68;100.00
54554;BME280;40450;55.848;-3.572;2022-09-09T13:24:35;99147.29;;;9.58;100.00
54554;BME280;40450;55.848;-3.572;2022-09-09T13:29:34;99150.21;;;9.55;100.00